Harmon, AR

5:37 AM CST on February 22, 2017 (GMT -0600)
ME1308 | | Change Station
Active Advisory: Dense Fog Advisory

Elev 1148 ft 36.16 °N, 94.30 °W | Updated 20 minutes ago

Overcast
Overcast
55.0 °F
Feels Like 55.0 °F
N
0.0
Wind Variable Wind from East

Today
High -- | Low -- °F
--% Chance of Precip.
Yesterday
High -- | Low -- °F
Precip. -- in
Pressure 29.88 in
Visibility 4.0 miles
Clouds Overcast 200 ft
Dew Point 54 °F
Humidity 95%
Rainfall 0.00 in
Snow Depth Not available.
6:56 AM 6:05 PM
Waning Crescent, 18% visible
METAR KXNA 221053Z AUTO 16003KT 4SM BR OVC002 11/11 A2990 RMK AO2 SLP118 T01060106
Pressure 29.88 in
Visibility 4.0 miles
Clouds Overcast 200 ft
Dew Point 54 °F
Humidity 95%
Rainfall 0.00 in
Snow Depth Not available.
6:56 AM 6:05 PM
Waning Crescent, 18% visible
METAR KXNA 221053Z AUTO 16003KT 4SM BR OVC002 11/11 A2990 RMK AO2 SLP118 T01060106

Get Your Daily Forecast Email!

Thanks for signing up!

Be on the lookout for a verification email in your inbox.

You'll start receiving the daily forecast at 8 AM.

×

10-Day Weather Forecast

Almanac

Astronomy

Feb. 22, 2017 Rise Set
Actual Time
Civil Twilight
Nautical Twilight
Astronomical Twilight
Moon
Length of Visible Light
Length of Day
Tomorrow will be .
, % of the Moon is Illuminated

Today's Extremes

State Highs State Lows

Community

WunderPhotos

Upload Photos

1,962,540 photos uploaded!

WunderBlog® & News

Nearby

Air Quality

  Air Quality AQ Index Pollutant
Not available.

Snow Depth

Station Depth Elevation

Earthquake Activity

City Distance Mag. Time & Date
Minimum magnitude displayed is 2.5.

Coastal Water Temperatures

Place Temperature

Stations

Nearby Weather Stations

Station Location Temp. Windchill Dew Point Humidity Wind Precip. Elev Updated Type
                   

Watches & Warnings

Dense Fog Advisory
Issued: 2:40 AM CST Feb. 22, 2017 – National Weather Service

... Dense fog advisory now in effect until 10 am CST this
morning...

* visibility... areas below one quarter mile at times.

* Impacts... areas of dense fog will reduce visibilities through
early Wednesday morning.

Precautionary/preparedness actions...

If driving, slow down, use your low beam headlights, and leave
plenty of distance ahead of you.



Lacy